sensor_id;sensor_type;location;lat;lon;timestamp;P1;durP1;ratioP1;P2;durP2;ratioP2
61471;SDS011;47337;54.068;12.114;2022-11-10T00:00:08;7.32;;;2.20;;
61471;SDS011;47337;54.068;12.114;2022-11-10T00:02:35;7.93;;;3.08;;
61471;SDS011;47337;54.068;12.114;2022-11-10T00:05:03;8.18;;;2.25;;
61471;SDS011;47337;54.068;12.114;2022-11-10T00:07:28;4.32;;;2.50;;
61471;SDS011;47337;54.068;12.114;2022-11-10T00:09:56;3.92;;;3.00;;
61471;SDS011;47337;54.068;12.114;2022-11-10T00:12:22;9.18;;;3.45;;
61471;SDS011;47337;54.068;12.114;2022-11-10T00:14:47;3.90;;;2.75;;
61471;SDS011;47337;54.068;12.114;2022-11-10T00:17:34;7.38;;;2.70;;
61471;SDS011;47337;54.068;12.114;2022-11-10T00:20:00;4.97;;;2.78;;
61471;SDS011;47337;54.068;12.114;2022-11-10T00:22:26;6.88;;;2.60;;
61471;SDS011;47337;54.068;12.114;2022-11-10T00:24:52;7.32;;;2.80;;
61471;SDS011;47337;54.068;12.114;2022-11-10T00:27:17;5.05;;;2.53;;
61471;SDS011;47337;54.068;12.114;2022-11-10T00:29:45;4.32;;;2.28;;
61471;SDS011;47337;54.068;12.114;2022-11-10T00:32:10;7.90;;;2.63;;
61471;SDS011;47337;54.068;12.114;2022-11-10T00:34:36;4.75;;;2.60;;
61471;SDS011;47337;54.068;12.114;2022-11-10T00:37:02;5.80;;;2.20;;
61471;SDS011;47337;54.068;12.114;2022-11-10T00:39:27;4.72;;;2.65;;
61471;SDS011;47337;54.068;12.114;2022-11-10T00:41:53;4.65;;;1.92;;
61471;SDS011;47337;54.068;12.114;2022-11-10T00:44:21;2.75;;;1.35;;
61471;SDS011;47337;54.068;12.114;2022-11-10T00:46:49;1.83;;;1.20;;
61471;SDS011;47337;54.068;12.114;2022-11-10T00:49:14;2.60;;;0.63;;
61471;SDS011;47337;54.068;12.114;2022-11-10T00:51:39;3.92;;;0.75;;
61471;SDS011;47337;54.068;12.114;2022-11-10T00:54:05;3.08;;;0.98;;
61471;SDS011;47337;54.068;12.114;2022-11-10T00:56:30;1.95;;;0.50;;
61471;SDS011;47337;54.068;12.114;2022-11-10T00:58:56;1.23;;;0.60;;
61471;SDS011;47337;54.068;12.114;2022-11-10T01:01:22;2.03;;;0.80;;
61471;SDS011;47337;54.068;12.114;2022-11-10T01:03:51;4.53;;;0.93;;
61471;SDS011;47337;54.068;12.114;2022-11-10T01:06:18;1.52;;;0.65;;
61471;SDS011;47337;54.068;12.114;2022-11-10T01:08:47;1.70;;;0.57;;
61471;SDS011;47337;54.068;12.114;2022-11-10T01:13:40;0.73;;;0.45;;
61471;SDS011;47337;54.068;12.114;2022-11-10T01:16:07;2.97;;;1.10;;
61471;SDS011;47337;54.068;12.114;2022-11-10T01:18:37;1.67;;;0.90;;
61471;SDS011;47337;54.068;12.114;2022-11-10T01:21:03;1.23;;;0.52;;
61471;SDS011;47337;54.068;12.114;2022-11-10T01:23:29;4.38;;;0.88;;
61471;SDS011;47337;54.068;12.114;2022-11-10T01:25:59;1.88;;;0.70;;
61471;SDS011;47337;54.068;12.114;2022-11-10T01:28:28;1.30;;;0.60;;
61471;SDS011;47337;54.068;12.114;2022-11-10T01:30:57;1.08;;;0.60;;
61471;SDS011;47337;54.068;12.114;2022-11-10T01:33:25;3.25;;;0.70;;
61471;SDS011;47337;54.068;12.114;2022-11-10T01:35:51;1.70;;;0.60;;
61471;SDS011;47337;54.068;12.114;2022-11-10T01:38:17;0.55;;;0.47;;
61471;SDS011;47337;54.068;12.114;2022-11-10T01:40:43;2.70;;;0.65;;
61471;SDS011;47337;54.068;12.114;2022-11-10T01:43:09;1.98;;;0.63;;
61471;SDS011;47337;54.068;12.114;2022-11-10T01:45:41;0.90;;;0.40;;
61471;SDS011;47337;54.068;12.114;2022-11-10T01:48:07;2.10;;;0.60;;
61471;SDS011;47337;54.068;12.114;2022-11-10T01:50:37;0.63;;;0.50;;
61471;SDS011;47337;54.068;12.114;2022-11-10T01:53:09;2.05;;;0.70;;
61471;SDS011;47337;54.068;12.114;2022-11-10T01:55:42;1.38;;;0.73;;
61471;SDS011;47337;54.068;12.114;2022-11-10T01:58:09;1.33;;;0.77;;
61471;SDS011;47337;54.068;12.114;2022-11-10T02:00:38;0.80;;;0.80;;
61471;SDS011;47337;54.068;12.114;2022-11-10T02:06:08;1.40;;;0.85;;
61471;SDS011;47337;54.068;12.114;2022-11-10T02:08:35;1.05;;;0.70;;
61471;SDS011;47337;54.068;12.114;2022-11-10T02:11:01;1.90;;;0.98;;
61471;SDS011;47337;54.068;12.114;2022-11-10T02:13:27;3.05;;;0.85;;
61471;SDS011;47337;54.068;12.114;2022-11-10T02:15:55;0.85;;;0.70;;
61471;SDS011;47337;54.068;12.114;2022-11-10T02:18:26;2.38;;;0.70;;
61471;SDS011;47337;54.068;12.114;2022-11-10T02:20:52;3.15;;;0.90;;
61471;SDS011;47337;54.068;12.114;2022-11-10T02:25:55;2.20;;;0.68;;
61471;SDS011;47337;54.068;12.114;2022-11-10T02:28:21;1.85;;;0.50;;
61471;SDS011;47337;54.068;12.114;2022-11-10T02:30:47;2.70;;;0.80;;
61471;SDS011;47337;54.068;12.114;2022-11-10T02:33:13;2.40;;;0.98;;
61471;SDS011;47337;54.068;12.114;2022-11-10T02:35:41;0.80;;;0.40;;
61471;SDS011;47337;54.068;12.114;2022-11-10T02:38:07;3.30;;;0.70;;
61471;SDS011;47337;54.068;12.114;2022-11-10T02:40:33;2.15;;;0.50;;
61471;SDS011;47337;54.068;12.114;2022-11-10T02:42:58;2.42;;;0.73;;
61471;SDS011;47337;54.068;12.114;2022-11-10T02:45:23;2.58;;;0.80;;
61471;SDS011;47337;54.068;12.114;2022-11-10T02:47:49;1.38;;;0.85;;
61471;SDS011;47337;54.068;12.114;2022-11-10T02:50:15;1.65;;;0.80;;
61471;SDS011;47337;54.068;12.114;2022-11-10T02:52:41;5.72;;;1.08;;
61471;SDS011;47337;54.068;12.114;2022-11-10T02:55:07;4.50;;;1.20;;
61471;SDS011;47337;54.068;12.114;2022-11-10T02:57:33;2.03;;;1.20;;
61471;SDS011;47337;54.068;12.114;2022-11-10T03:00:01;4.60;;;1.70;;
61471;SDS011;47337;54.068;12.114;2022-11-10T03:02:27;1.77;;;1.20;;
61471;SDS011;47337;54.068;12.114;2022-11-10T03:04:52;1.98;;;1.48;;
61471;SDS011;47337;54.068;12.114;2022-11-10T03:07:18;3.53;;;1.60;;
61471;SDS011;47337;54.068;12.114;2022-11-10T03:09:43;6.03;;;1.60;;
61471;SDS011;47337;54.068;12.114;2022-11-10T03:12:08;2.60;;;1.77;;
61471;SDS011;47337;54.068;12.114;2022-11-10T03:14:36;4.03;;;1.80;;
61471;SDS011;47337;54.068;12.114;2022-11-10T03:17:02;7.95;;;2.28;;
61471;SDS011;47337;54.068;12.114;2022-11-10T03:19:27;5.43;;;1.83;;
61471;SDS011;47337;54.068;12.114;2022-11-10T03:21:53;5.03;;;2.17;;
61471;SDS011;47337;54.068;12.114;2022-11-10T03:24:20;5.50;;;2.70;;
61471;SDS011;47337;54.068;12.114;2022-11-10T03:26:49;8.77;;;2.90;;
61471;SDS011;47337;54.068;12.114;2022-11-10T03:29:14;5.47;;;3.05;;
61471;SDS011;47337;54.068;12.114;2022-11-10T03:31:40;7.72;;;3.65;;
61471;SDS011;47337;54.068;12.114;2022-11-10T03:34:05;9.77;;;4.00;;
61471;SDS011;47337;54.068;12.114;2022-11-10T03:36:33;10.88;;;4.10;;
61471;SDS011;47337;54.068;12.114;2022-11-10T03:39:00;11.80;;;3.88;;
61471;SDS011;47337;54.068;12.114;2022-11-10T03:41:26;11.32;;;4.40;;
61471;SDS011;47337;54.068;12.114;2022-11-10T03:43:53;8.15;;;4.80;;
61471;SDS011;47337;54.068;12.114;2022-11-10T03:46:21;7.50;;;4.75;;
61471;SDS011;47337;54.068;12.114;2022-11-10T03:48:47;9.82;;;4.75;;
61471;SDS011;47337;54.068;12.114;2022-11-10T03:51:14;8.85;;;4.63;;
61471;SDS011;47337;54.068;12.114;2022-11-10T03:53:40;12.02;;;5.82;;
61471;SDS011;47337;54.068;12.114;2022-11-10T03:56:08;10.80;;;5.10;;
61471;SDS011;47337;54.068;12.114;2022-11-10T03:58:33;13.25;;;5.38;;
61471;SDS011;47337;54.068;12.114;2022-11-10T04:00:59;12.40;;;5.82;;
61471;SDS011;47337;54.068;12.114;2022-11-10T04:03:24;10.90;;;5.38;;
61471;SDS011;47337;54.068;12.114;2022-11-10T04:05:49;13.27;;;5.55;;
61471;SDS011;47337;54.068;12.114;2022-11-10T04:08:34;14.77;;;5.80;;
61471;SDS011;47337;54.068;12.114;2022-11-10T04:11:18;10.30;;;5.50;;
61471;SDS011;47337;54.068;12.114;2022-11-10T04:14:03;22.63;;;6.82;;
61471;SDS011;47337;54.068;12.114;2022-11-10T04:16:47;13.98;;;6.22;;
61471;SDS011;47337;54.068;12.114;2022-11-10T04:19:15;16.08;;;6.50;;
61471;SDS011;47337;54.068;12.114;2022-11-10T04:21:43;22.38;;;6.93;;
61471;SDS011;47337;54.068;12.114;2022-11-10T04:24:09;18.30;;;6.50;;
61471;SDS011;47337;54.068;12.114;2022-11-10T04:26:34;14.40;;;6.50;;
61471;SDS011;47337;54.068;12.114;2022-11-10T04:29:03;16.17;;;6.45;;
61471;SDS011;47337;54.068;12.114;2022-11-10T04:31:31;12.32;;;5.60;;
61471;SDS011;47337;54.068;12.114;2022-11-10T04:33:58;15.20;;;8.10;;
61471;SDS011;47337;54.068;12.114;2022-11-10T04:36:25;20.85;;;7.45;;
61471;SDS011;47337;54.068;12.114;2022-11-10T04:38:52;16.83;;;7.05;;
61471;SDS011;47337;54.068;12.114;2022-11-10T04:41:21;15.60;;;7.55;;
61471;SDS011;47337;54.068;12.114;2022-11-10T04:43:48;18.23;;;7.05;;
61471;SDS011;47337;54.068;12.114;2022-11-10T04:48:50;18.70;;;7.10;;
61471;SDS011;47337;54.068;12.114;2022-11-10T04:51:16;12.52;;;6.82;;
61471;SDS011;47337;54.068;12.114;2022-11-10T04:53:43;18.63;;;7.13;;
61471;SDS011;47337;54.068;12.114;2022-11-10T04:56:15;14.50;;;7.30;;
61471;SDS011;47337;54.068;12.114;2022-11-10T04:58:41;14.68;;;7.40;;
61471;SDS011;47337;54.068;12.114;2022-11-10T05:01:10;15.02;;;6.72;;
61471;SDS011;47337;54.068;12.114;2022-11-10T05:03:39;17.13;;;6.57;;
61471;SDS011;47337;54.068;12.114;2022-11-10T05:06:06;20.02;;;7.18;;
61471;SDS011;47337;54.068;12.114;2022-11-10T05:08:32;14.95;;;6.80;;
61471;SDS011;47337;54.068;12.114;2022-11-10T05:11:03;17.00;;;7.72;;
61471;SDS011;47337;54.068;12.114;2022-11-10T05:13:29;12.43;;;6.60;;
61471;SDS011;47337;54.068;12.114;2022-11-10T05:15:55;18.45;;;7.80;;
61471;SDS011;47337;54.068;12.114;2022-11-10T05:18:21;20.20;;;8.20;;
61471;SDS011;47337;54.068;12.114;2022-11-10T05:20:49;13.57;;;7.57;;
61471;SDS011;47337;54.068;12.114;2022-11-10T05:23:15;18.42;;;7.82;;
61471;SDS011;47337;54.068;12.114;2022-11-10T05:25:59;20.92;;;7.85;;
61471;SDS011;47337;54.068;12.114;2022-11-10T05:28:25;15.95;;;7.90;;
61471;SDS011;47337;54.068;12.114;2022-11-10T05:30:50;15.35;;;7.82;;
61471;SDS011;47337;54.068;12.114;2022-11-10T05:33:16;15.80;;;7.28;;
61471;SDS011;47337;54.068;12.114;2022-11-10T05:35:41;23.73;;;8.10;;
61471;SDS011;47337;54.068;12.114;2022-11-10T05:38:08;20.80;;;8.40;;
61471;SDS011;47337;54.068;12.114;2022-11-10T05:40:33;15.43;;;8.02;;
61471;SDS011;47337;54.068;12.114;2022-11-10T05:42:59;22.52;;;8.77;;
61471;SDS011;47337;54.068;12.114;2022-11-10T05:45:25;18.92;;;8.15;;
61471;SDS011;47337;54.068;12.114;2022-11-10T05:47:54;20.70;;;8.40;;
61471;SDS011;47337;54.068;12.114;2022-11-10T05:50:23;16.23;;;7.90;;
61471;SDS011;47337;54.068;12.114;2022-11-10T05:52:53;19.52;;;7.90;;
61471;SDS011;47337;54.068;12.114;2022-11-10T05:55:25;19.65;;;9.65;;
61471;SDS011;47337;54.068;12.114;2022-11-10T05:57:52;19.20;;;8.27;;
61471;SDS011;47337;54.068;12.114;2022-11-10T06:00:19;17.92;;;7.90;;
61471;SDS011;47337;54.068;12.114;2022-11-10T06:05:44;17.90;;;6.50;;
61471;SDS011;47337;54.068;12.114;2022-11-10T06:08:10;15.43;;;7.13;;
61471;SDS011;47337;54.068;12.114;2022-11-10T06:10:35;16.23;;;6.80;;
61471;SDS011;47337;54.068;12.114;2022-11-10T06:13:04;14.52;;;6.88;;
61471;SDS011;47337;54.068;12.114;2022-11-10T06:15:30;16.80;;;7.18;;
61471;SDS011;47337;54.068;12.114;2022-11-10T06:17:59;18.63;;;7.63;;
61471;SDS011;47337;54.068;12.114;2022-11-10T06:20:24;14.13;;;6.55;;
61471;SDS011;47337;54.068;12.114;2022-11-10T06:23:00;14.85;;;7.18;;
61471;SDS011;47337;54.068;12.114;2022-11-10T06:25:31;23.17;;;7.95;;
61471;SDS011;47337;54.068;12.114;2022-11-10T06:27:58;22.20;;;7.90;;
61471;SDS011;47337;54.068;12.114;2022-11-10T06:30:26;17.63;;;7.75;;
61471;SDS011;47337;54.068;12.114;2022-11-10T06:32:55;15.68;;;7.18;;
61471;SDS011;47337;54.068;12.114;2022-11-10T06:35:21;23.15;;;8.30;;
61471;SDS011;47337;54.068;12.114;2022-11-10T06:40:22;21.55;;;8.68;;
61471;SDS011;47337;54.068;12.114;2022-11-10T06:42:47;20.40;;;7.47;;
61471;SDS011;47337;54.068;12.114;2022-11-10T06:45:13;23.23;;;8.63;;
61471;SDS011;47337;54.068;12.114;2022-11-10T06:47:38;22.13;;;8.75;;
61471;SDS011;47337;54.068;12.114;2022-11-10T06:50:06;22.02;;;8.95;;
61471;SDS011;47337;54.068;12.114;2022-11-10T06:52:36;21.20;;;8.63;;
61471;SDS011;47337;54.068;12.114;2022-11-10T06:55:01;17.42;;;8.63;;
61471;SDS011;47337;54.068;12.114;2022-11-10T06:57:29;22.23;;;8.45;;
61471;SDS011;47337;54.068;12.114;2022-11-10T07:00:06;24.55;;;8.93;;
61471;SDS011;47337;54.068;12.114;2022-11-10T07:02:34;27.27;;;9.02;;
61471;SDS011;47337;54.068;12.114;2022-11-10T07:04:59;20.45;;;8.40;;
61471;SDS011;47337;54.068;12.114;2022-11-10T07:07:25;23.35;;;9.98;;
61471;SDS011;47337;54.068;12.114;2022-11-10T07:09:53;18.40;;;8.27;;
61471;SDS011;47337;54.068;12.114;2022-11-10T07:12:18;22.55;;;9.40;;
61471;SDS011;47337;54.068;12.114;2022-11-10T07:14:43;26.45;;;9.45;;
61471;SDS011;47337;54.068;12.114;2022-11-10T07:17:09;21.33;;;8.90;;
61471;SDS011;47337;54.068;12.114;2022-11-10T07:19:34;19.77;;;8.65;;
61471;SDS011;47337;54.068;12.114;2022-11-10T07:22:00;19.83;;;8.48;;
61471;SDS011;47337;54.068;12.114;2022-11-10T07:24:25;20.42;;;9.68;;
61471;SDS011;47337;54.068;12.114;2022-11-10T07:26:54;22.42;;;9.55;;
61471;SDS011;47337;54.068;12.114;2022-11-10T07:29:23;21.27;;;9.10;;
61471;SDS011;47337;54.068;12.114;2022-11-10T07:31:49;17.10;;;9.25;;
61471;SDS011;47337;54.068;12.114;2022-11-10T07:34:15;19.27;;;9.15;;
61471;SDS011;47337;54.068;12.114;2022-11-10T07:36:40;17.65;;;9.18;;
61471;SDS011;47337;54.068;12.114;2022-11-10T07:39:06;21.27;;;9.23;;
61471;SDS011;47337;54.068;12.114;2022-11-10T07:41:31;21.77;;;8.52;;
61471;SDS011;47337;54.068;12.114;2022-11-10T07:43:56;21.52;;;9.00;;
61471;SDS011;47337;54.068;12.114;2022-11-10T07:46:42;22.83;;;9.48;;
61471;SDS011;47337;54.068;12.114;2022-11-10T07:49:07;22.45;;;9.93;;
61471;SDS011;47337;54.068;12.114;2022-11-10T07:51:33;16.48;;;8.77;;
61471;SDS011;47337;54.068;12.114;2022-11-10T07:54:00;23.48;;;10.40;;
61471;SDS011;47337;54.068;12.114;2022-11-10T07:56:26;19.23;;;9.65;;
61471;SDS011;47337;54.068;12.114;2022-11-10T07:58:52;21.60;;;9.50;;
61471;SDS011;47337;54.068;12.114;2022-11-10T08:01:19;17.52;;;9.10;;
61471;SDS011;47337;54.068;12.114;2022-11-10T08:03:45;18.65;;;10.13;;
61471;SDS011;47337;54.068;12.114;2022-11-10T08:06:10;19.90;;;10.52;;
61471;SDS011;47337;54.068;12.114;2022-11-10T08:08:38;23.63;;;10.68;;
61471;SDS011;47337;54.068;12.114;2022-11-10T08:11:03;24.20;;;10.82;;
61471;SDS011;47337;54.068;12.114;2022-11-10T08:13:31;21.48;;;10.82;;
61471;SDS011;47337;54.068;12.114;2022-11-10T08:15:59;23.33;;;11.98;;
61471;SDS011;47337;54.068;12.114;2022-11-10T08:18:25;24.65;;;11.50;;
61471;SDS011;47337;54.068;12.114;2022-11-10T08:20:53;25.05;;;12.65;;
61471;SDS011;47337;54.068;12.114;2022-11-10T08:23:22;24.98;;;12.30;;
61471;SDS011;47337;54.068;12.114;2022-11-10T08:25:48;27.42;;;12.23;;
61471;SDS011;47337;54.068;12.114;2022-11-10T08:28:17;26.25;;;13.20;;
61471;SDS011;47337;54.068;12.114;2022-11-10T08:30:44;26.95;;;13.63;;
61471;SDS011;47337;54.068;12.114;2022-11-10T08:33:11;26.17;;;13.88;;
61471;SDS011;47337;54.068;12.114;2022-11-10T08:35:39;28.70;;;13.52;;
61471;SDS011;47337;54.068;12.114;2022-11-10T08:38:10;25.77;;;13.50;;
61471;SDS011;47337;54.068;12.114;2022-11-10T08:40:43;26.30;;;13.88;;
61471;SDS011;47337;54.068;12.114;2022-11-10T08:43:08;25.75;;;13.55;;
61471;SDS011;47337;54.068;12.114;2022-11-10T08:45:39;26.75;;;13.52;;
61471;SDS011;47337;54.068;12.114;2022-11-10T08:48:06;25.83;;;13.07;;
61471;SDS011;47337;54.068;12.114;2022-11-10T08:50:34;23.20;;;13.13;;
61471;SDS011;47337;54.068;12.114;2022-11-10T08:53:00;22.70;;;12.75;;
61471;SDS011;47337;54.068;12.114;2022-11-10T08:55:26;23.67;;;12.15;;
61471;SDS011;47337;54.068;12.114;2022-11-10T08:57:56;23.80;;;11.98;;
61471;SDS011;47337;54.068;12.114;2022-11-10T09:00:23;26.35;;;12.75;;
61471;SDS011;47337;54.068;12.114;2022-11-10T09:02:49;25.55;;;11.68;;
61471;SDS011;47337;54.068;12.114;2022-11-10T09:05:17;24.08;;;11.55;;
61471;SDS011;47337;54.068;12.114;2022-11-10T09:07:43;21.58;;;12.00;;
61471;SDS011;47337;54.068;12.114;2022-11-10T09:10:09;25.52;;;12.27;;
61471;SDS011;47337;54.068;12.114;2022-11-10T09:12:35;23.15;;;11.02;;
61471;SDS011;47337;54.068;12.114;2022-11-10T09:15:01;24.88;;;12.30;;
61471;SDS011;47337;54.068;12.114;2022-11-10T09:17:27;18.45;;;10.20;;
61471;SDS011;47337;54.068;12.114;2022-11-10T09:19:52;21.38;;;10.90;;
61471;SDS011;47337;54.068;12.114;2022-11-10T09:22:17;18.85;;;9.93;;
61471;SDS011;47337;54.068;12.114;2022-11-10T09:24:43;17.35;;;9.88;;
61471;SDS011;47337;54.068;12.114;2022-11-10T09:27:08;15.18;;;9.20;;
61471;SDS011;47337;54.068;12.114;2022-11-10T09:29:36;16.60;;;8.05;;
61471;SDS011;47337;54.068;12.114;2022-11-10T09:32:01;20.80;;;8.48;;
61471;SDS011;47337;54.068;12.114;2022-11-10T09:34:29;18.60;;;8.93;;
61471;SDS011;47337;54.068;12.114;2022-11-10T09:36:57;14.32;;;8.23;;
61471;SDS011;47337;54.068;12.114;2022-11-10T09:39:23;22.20;;;7.90;;
61471;SDS011;47337;54.068;12.114;2022-11-10T09:41:48;14.23;;;7.85;;
61471;SDS011;47337;54.068;12.114;2022-11-10T09:44:26;18.02;;;8.27;;
61471;SDS011;47337;54.068;12.114;2022-11-10T09:47:03;11.65;;;6.55;;
61471;SDS011;47337;54.068;12.114;2022-11-10T09:49:38;18.95;;;8.98;;
61471;SDS011;47337;54.068;12.114;2022-11-10T09:52:11;19.50;;;8.07;;
61471;SDS011;47337;54.068;12.114;2022-11-10T09:54:53;16.20;;;7.75;;
61471;SDS011;47337;54.068;12.114;2022-11-10T09:57:29;16.70;;;9.18;;
61471;SDS011;47337;54.068;12.114;2022-11-10T09:59:54;15.30;;;7.57;;
61471;SDS011;47337;54.068;12.114;2022-11-10T10:07:46;16.95;;;7.47;;
61471;SDS011;47337;54.068;12.114;2022-11-10T10:21:22;13.43;;;6.90;;
61471;SDS011;47337;54.068;12.114;2022-11-10T10:23:54;10.10;;;6.53;;
61471;SDS011;47337;54.068;12.114;2022-11-10T10:26:29;14.50;;;7.20;;
61471;SDS011;47337;54.068;12.114;2022-11-10T10:29:01;15.60;;;7.43;;
61471;SDS011;47337;54.068;12.114;2022-11-10T10:31:42;17.85;;;7.90;;
61471;SDS011;47337;54.068;12.114;2022-11-10T10:34:16;14.50;;;6.65;;
61471;SDS011;47337;54.068;12.114;2022-11-10T10:36:44;12.57;;;7.25;;
61471;SDS011;47337;54.068;12.114;2022-11-10T10:39:16;15.45;;;7.22;;
61471;SDS011;47337;54.068;12.114;2022-11-10T10:41:51;13.00;;;6.65;;
61471;SDS011;47337;54.068;12.114;2022-11-10T10:44:17;15.45;;;6.65;;
61471;SDS011;47337;54.068;12.114;2022-11-10T10:46:48;18.02;;;6.63;;
61471;SDS011;47337;54.068;12.114;2022-11-10T10:49:19;20.77;;;6.88;;
61471;SDS011;47337;54.068;12.114;2022-11-10T10:52:04;12.95;;;5.72;;
61471;SDS011;47337;54.068;12.114;2022-11-10T10:54:31;15.65;;;7.15;;
61471;SDS011;47337;54.068;12.114;2022-11-10T10:57:05;13.98;;;6.53;;
61471;SDS011;47337;54.068;12.114;2022-11-10T10:59:46;14.30;;;6.18;;
61471;SDS011;47337;54.068;12.114;2022-11-10T11:02:25;15.18;;;7.20;;
61471;SDS011;47337;54.068;12.114;2022-11-10T11:07:57;17.33;;;6.63;;
61471;SDS011;47337;54.068;12.114;2022-11-10T11:12:53;10.95;;;6.32;;
61471;SDS011;47337;54.068;12.114;2022-11-10T11:15:23;13.18;;;6.50;;
61471;SDS011;47337;54.068;12.114;2022-11-10T11:17:58;14.18;;;7.30;;
61471;SDS011;47337;54.068;12.114;2022-11-10T11:23:10;12.77;;;6.30;;
61471;SDS011;47337;54.068;12.114;2022-11-10T11:25:42;14.05;;;6.75;;
61471;SDS011;47337;54.068;12.114;2022-11-10T11:28:23;11.25;;;6.25;;
61471;SDS011;47337;54.068;12.114;2022-11-10T11:39:27;10.13;;;5.90;;
61471;SDS011;47337;54.068;12.114;2022-11-10T11:45:10;18.30;;;5.80;;
61471;SDS011;47337;54.068;12.114;2022-11-10T11:48:27;12.23;;;5.03;;
61471;SDS011;47337;54.068;12.114;2022-11-10T11:50:49;14.38;;;5.75;;
61471;SDS011;47337;54.068;12.114;2022-11-10T11:53:31;13.70;;;5.55;;
61471;SDS011;47337;54.068;12.114;2022-11-10T12:17:03;12.38;;;6.20;;
61471;SDS011;47337;54.068;12.114;2022-11-10T12:19:52;14.90;;;6.13;;
61471;SDS011;47337;54.068;12.114;2022-11-10T12:26:23;16.13;;;5.55;;
61471;SDS011;47337;54.068;12.114;2022-11-10T12:28:23;12.30;;;5.93;;
61471;SDS011;47337;54.068;12.114;2022-11-10T12:30:56;17.77;;;6.57;;
61471;SDS011;47337;54.068;12.114;2022-11-10T12:33:37;15.10;;;5.82;;
61471;SDS011;47337;54.068;12.114;2022-11-10T12:36:10;12.07;;;5.50;;
61471;SDS011;47337;54.068;12.114;2022-11-10T12:41:36;13.88;;;6.55;;
61471;SDS011;47337;54.068;12.114;2022-11-10T12:47:10;12.20;;;5.90;;
61471;SDS011;47337;54.068;12.114;2022-11-10T12:49:46;15.18;;;5.35;;
61471;SDS011;47337;54.068;12.114;2022-11-10T12:52:31;13.20;;;4.80;;
61471;SDS011;47337;54.068;12.114;2022-11-10T12:55:04;16.70;;;5.13;;
61471;SDS011;47337;54.068;12.114;2022-11-10T12:57:30;10.02;;;5.05;;
61471;SDS011;47337;54.068;12.114;2022-11-10T13:00:05;16.25;;;5.90;;
61471;SDS011;47337;54.068;12.114;2022-11-10T13:02:46;15.82;;;5.82;;
61471;SDS011;47337;54.068;12.114;2022-11-10T13:08:03;10.60;;;5.18;;
61471;SDS011;47337;54.068;12.114;2022-11-10T13:10:34;12.70;;;5.03;;
61471;SDS011;47337;54.068;12.114;2022-11-10T13:17:59;13.45;;;5.10;;
61471;SDS011;47337;54.068;12.114;2022-11-10T13:26:09;16.05;;;5.28;;
61471;SDS011;47337;54.068;12.114;2022-11-10T13:42:01;12.52;;;4.47;;
61471;SDS011;47337;54.068;12.114;2022-11-10T13:44:50;11.85;;;4.97;;
61471;SDS011;47337;54.068;12.114;2022-11-10T13:53:28;10.13;;;5.05;;
61471;SDS011;47337;54.068;12.114;2022-11-10T13:56:35;9.70;;;4.38;;
61471;SDS011;47337;54.068;12.114;2022-11-10T13:59:15;12.65;;;4.50;;
61471;SDS011;47337;54.068;12.114;2022-11-10T14:01:43;11.95;;;4.40;;
61471;SDS011;47337;54.068;12.114;2022-11-10T14:04:37;10.93;;;4.43;;
61471;SDS011;47337;54.068;12.114;2022-11-10T14:07:00;10.73;;;4.88;;
61471;SDS011;47337;54.068;12.114;2022-11-10T14:12:12;14.98;;;4.95;;
61471;SDS011;47337;54.068;12.114;2022-11-10T14:14:57;14.35;;;5.30;;
61471;SDS011;47337;54.068;12.114;2022-11-10T14:17:28;16.42;;;5.63;;
61471;SDS011;47337;54.068;12.114;2022-11-10T14:19:58;12.50;;;4.90;;
61471;SDS011;47337;54.068;12.114;2022-11-10T14:22:39;14.80;;;4.85;;
61471;SDS011;47337;54.068;12.114;2022-11-10T14:25:16;9.95;;;4.90;;
61471;SDS011;47337;54.068;12.114;2022-11-10T14:27:46;11.80;;;4.82;;
61471;SDS011;47337;54.068;12.114;2022-11-10T14:30:25;14.90;;;4.38;;
61471;SDS011;47337;54.068;12.114;2022-11-10T14:33:05;16.02;;;4.72;;
61471;SDS011;47337;54.068;12.114;2022-11-10T14:35:43;10.43;;;4.93;;
61471;SDS011;47337;54.068;12.114;2022-11-10T14:40:45;17.08;;;5.15;;
61471;SDS011;47337;54.068;12.114;2022-11-10T14:45:56;13.68;;;5.20;;
61471;SDS011;47337;54.068;12.114;2022-11-10T14:48:25;15.93;;;5.20;;
61471;SDS011;47337;54.068;12.114;2022-11-10T14:50:52;13.73;;;5.03;;
61471;SDS011;47337;54.068;12.114;2022-11-10T14:53:34;12.60;;;4.45;;
61471;SDS011;47337;54.068;12.114;2022-11-10T14:58:38;8.02;;;4.70;;
61471;SDS011;47337;54.068;12.114;2022-11-10T15:01:06;14.80;;;5.03;;
61471;SDS011;47337;54.068;12.114;2022-11-10T15:03:44;17.58;;;4.85;;
61471;SDS011;47337;54.068;12.114;2022-11-10T15:06:11;19.30;;;5.38;;
61471;SDS011;47337;54.068;12.114;2022-11-10T15:08:39;14.23;;;4.80;;
61471;SDS011;47337;54.068;12.114;2022-11-10T15:11:05;11.93;;;4.80;;
61471;SDS011;47337;54.068;12.114;2022-11-10T15:13:36;12.63;;;4.95;;
61471;SDS011;47337;54.068;12.114;2022-11-10T15:18:49;12.65;;;4.55;;
61471;SDS011;47337;54.068;12.114;2022-11-10T15:21:16;12.48;;;5.00;;
61471;SDS011;47337;54.068;12.114;2022-11-10T15:23:44;14.57;;;4.82;;
61471;SDS011;47337;54.068;12.114;2022-11-10T15:28:48;13.85;;;4.82;;
61471;SDS011;47337;54.068;12.114;2022-11-10T15:31:21;11.23;;;4.80;;
61471;SDS011;47337;54.068;12.114;2022-11-10T15:33:59;13.07;;;5.22;;
61471;SDS011;47337;54.068;12.114;2022-11-10T15:36:28;15.93;;;4.82;;
61471;SDS011;47337;54.068;12.114;2022-11-10T15:41:46;13.07;;;5.38;;
61471;SDS011;47337;54.068;12.114;2022-11-10T15:44:20;13.52;;;5.30;;
61471;SDS011;47337;54.068;12.114;2022-11-10T15:46:47;15.52;;;5.03;;
61471;SDS011;47337;54.068;12.114;2022-11-10T15:51:51;13.45;;;5.13;;
61471;SDS011;47337;54.068;12.114;2022-11-10T15:54:22;16.48;;;5.00;;
61471;SDS011;47337;54.068;12.114;2022-11-10T15:56:49;11.20;;;4.65;;
61471;SDS011;47337;54.068;12.114;2022-11-10T15:59:15;10.25;;;5.05;;
61471;SDS011;47337;54.068;12.114;2022-11-10T16:01:40;13.40;;;5.05;;
61471;SDS011;47337;54.068;12.114;2022-11-10T16:04:09;14.45;;;4.78;;
61471;SDS011;47337;54.068;12.114;2022-11-10T16:06:35;13.93;;;5.03;;
61471;SDS011;47337;54.068;12.114;2022-11-10T16:09:04;15.60;;;5.35;;
61471;SDS011;47337;54.068;12.114;2022-11-10T16:11:30;14.32;;;5.07;;
61471;SDS011;47337;54.068;12.114;2022-11-10T16:13:58;17.42;;;5.43;;
61471;SDS011;47337;54.068;12.114;2022-11-10T16:16:27;16.48;;;5.68;;
61471;SDS011;47337;54.068;12.114;2022-11-10T16:18:52;14.25;;;5.97;;
61471;SDS011;47337;54.068;12.114;2022-11-10T16:21:22;17.05;;;5.93;;
61471;SDS011;47337;54.068;12.114;2022-11-10T16:23:48;14.00;;;5.93;;
61471;SDS011;47337;54.068;12.114;2022-11-10T16:26:15;15.25;;;5.85;;
61471;SDS011;47337;54.068;12.114;2022-11-10T16:28:46;14.07;;;5.88;;
61471;SDS011;47337;54.068;12.114;2022-11-10T16:31:13;9.90;;;4.80;;
61471;SDS011;47337;54.068;12.114;2022-11-10T16:33:40;15.93;;;5.32;;
61471;SDS011;47337;54.068;12.114;2022-11-10T16:36:05;13.52;;;5.75;;
61471;SDS011;47337;54.068;12.114;2022-11-10T16:38:40;20.08;;;5.50;;
61471;SDS011;47337;54.068;12.114;2022-11-10T16:41:09;11.95;;;5.65;;
61471;SDS011;47337;54.068;12.114;2022-11-10T16:43:37;15.02;;;5.88;;
61471;SDS011;47337;54.068;12.114;2022-11-10T16:46:03;14.13;;;5.68;;
61471;SDS011;47337;54.068;12.114;2022-11-10T16:48:37;11.25;;;5.45;;
61471;SDS011;47337;54.068;12.114;2022-11-10T16:51:07;14.27;;;5.93;;